Latest Weather Observations for Tindal

IDD60801

Issued at 10:21 pm CST Monday 6 July 2020 (issued every 10 minutes, with the page automatically refreshed every 10 minutes)

About weather observations | Map of weather stations | Latest weather observations for NT | Other Formats
Station Details ID: 014932 Name: TINDAL RAAF Lat: -14.52 Lon: 132.38 Height: 133.6 m
Data from the previous 72 hours. | See also: Recent months at Tindal
Date/Time
CST
Temp
°C
App
Temp
°C
Dew
Point
°C
Rel
Hum
%
Delta-T
°C
Wind Press
QNH
hPa
Press
MSL
hPa
Rain since
9am
mm
Dir  Spd
km/h
Gust
km/h
Spd
kts
Gust
kts
06/10:00pm 20.3 16.3 3.1 32 8.2 SE 13 17 7 9 1017.6 1017.1 0.0
06/09:30pm 21.2 17.2 3.0 30 8.7 ESE 13 17 7 9 1017.5 1017.0 0.0
06/09:00pm 21.1 17.5 2.9 30 8.6 ESE 11 13 6 7 1017.3 1016.8 0.0
06/08:30pm 21.8 18.1 2.5 28 9.1 ESE 11 13 6 7 1017.1 1016.6 0.0
06/08:00pm 22.9 18.8 2.4 26 9.8 ESE 13 17 7 9 1016.7 1016.2 0.0
06/07:30pm 23.8 19.4 2.6 25 10.2 ESE 15 20 8 11 1016.4 1015.9 0.0
06/07:00pm 24.5 20.0 2.0 23 10.8 ESE 15 19 8 10 1016.1 1015.5 0.0
06/06:30pm 25.5 20.6 2.2 22 11.3 ESE 17 22 9 12 1015.8 1015.2 0.0
06/06:00pm 26.8 21.5 2.0 20 12.1 ESE 19 28 10 15 1015.4 1014.9 0.0
06/05:30pm 27.9 23.0 2.2 19 12.6 ESE 17 26 9 14 1015.1 1014.6 0.0
06/05:00pm 28.3 23.0 1.7 18 13.0 E 19 26 10 14 1014.8 1014.3 0.0
06/04:30pm 28.7 23.2 2.1 18 13.1 ESE 20 28 11 15 1014.9 1014.4 0.0
06/04:00pm 28.6 22.4 2.0 18 13.1 ESE 24 33 13 18 1014.9 1014.4 0.0
06/03:30pm 28.5 22.6 1.9 18 13.1 ESE 22 33 12 18 1015.0 1014.5 0.0
06/03:00pm 28.6 23.1 2.0 18 13.1 SE 20 30 11 16 1015.2 1014.7 0.0
06/02:30pm 28.0 22.6 2.2 19 12.7 SE 20 32 11 17 1015.4 1014.9 0.0
06/02:00pm 27.8 22.5 2.8 20 12.4 ESE 20 28 11 15 1015.9 1015.3 0.0
06/01:30pm 27.7 22.3 2.7 20 12.4 E 20 32 11 17 1016.3 1015.8 0.0
06/01:00pm 26.4 20.4 3.6 23 11.4 ESE 24 33 13 18 1016.9 1016.4 0.0
06/12:30pm 26.1 19.5 4.0 24 11.1 SE 28 37 15 20 1017.4 1016.9 0.0
06/12:00pm 25.8 19.4 3.1 23 11.2 ESE 26 39 14 21 1017.9 1017.4 0.0
06/11:30am 25.0 18.1 2.4 23 10.9 ESE 28 39 15 21 1018.2 1017.7 0.0
06/11:00am 24.4 17.8 1.9 23 10.7 ESE 26 35 14 19 1018.7 1018.2 0.0
06/10:30am 22.9 15.4 1.3 24 10.1 ESE 30 41 16 22 1019.0 1018.5 0.0
06/10:00am 22.8 15.3 1.2 24 10.1 ESE 30 41 16 22 1019.1 1018.6 0.0
06/09:30am 21.3 15.5 2.1 28 9.0 ESE 22 32 12 17 1019.3 1018.8 0.0
06/09:00am 19.1 13.6 2.0 32 7.8 ESE 20 30 11 16 1019.2 1018.7 0.0
06/08:30am 17.2 13.2 2.8 38 6.6 ESE 13 19 7 10 1019.1 1018.6 0.0
06/08:00am 15.6 11.2 2.7 42 5.8 SE 15 19 8 10 1018.8 1018.3 0.0
06/07:30am 13.7 9.7 2.9 48 4.8 SE 13 17 7 9 1018.7 1018.2 0.0
06/07:00am 12.2 7.8 2.9 53 4.1 SE 15 15 8 8 1018.4 1017.9 0.0
06/06:30am 12.3 8.3 3.0 53 4.1 SE 13 15 7 8 1018.1 1017.6 0.0
06/06:00am 12.9 9.2 2.5 49 4.6 SE 11 13 6 7 1017.8 1017.3 0.0
06/05:30am 13.6 10.3 2.5 47 4.9 SE 9 11 5 6 1017.7 1017.2 0.0
06/05:00am 12.7 8.7 2.6 50 4.5 SE 13 15 7 8 1017.6 1017.1 0.0
06/04:30am 13.4 10.1 2.3 47 4.9 SE 9 11 5 6 1017.7 1017.2 0.0
06/04:00am 15.9 12.1 2.0 39 6.2 ESE 11 13 6 7 1017.6 1017.1 0.0
06/03:30am 16.1 12.0 2.5 40 6.1 ESE 13 17 7 9 1017.6 1017.1 0.0
06/03:00am 13.5 9.9 2.7 48 4.8 ESE 11 13 6 7 1017.7 1017.2 0.0
06/02:30am 13.4 10.5 2.6 48 4.8 SE 7 9 4 5 1017.9 1017.4 0.0
06/02:00am 13.5 10.6 2.7 48 4.8 ESE 7 9 4 5 1017.8 1017.3 0.0
06/01:30am 13.5 10.2 2.7 48 4.8 ESE 9 9 5 5 1017.9 1017.4 0.0
06/01:00am 14.5 11.2 2.7 45 5.3 ESE 9 11 5 6 1017.8 1017.3 0.0
06/12:30am 16.2 12.5 2.2 39 6.3 ESE 11 11 6 6 1017.7 1017.2 0.0
06/12:00am 17.4 13.7 2.2 36 6.9 ESE 11 13 6 7 1017.6 1017.1 0.0
 
Date/Time
CST
Temp
°C
App
Temp
°C
Dew
Point
°C
Rel
Hum
%
Delta-T
°C
Wind Press
QNH
hPa
Press
MSL
hPa
Rain since
9am
mm
Dir  Spd
km/h
Gust
km/h
Spd
kts
Gust
kts
05/11:30pm 18.1 14.3 2.0 34 7.3 ESE 11 13 6 7 1017.6 1017.1 0.0
05/11:00pm 16.8 13.4 2.0 37 6.7 ESE 9 13 5 7 1017.6 1017.1 0.0
05/10:30pm 16.7 12.9 2.0 37 6.6 ESE 11 13 6 7 1017.5 1017.0 0.0
05/10:00pm 16.3 12.9 2.0 38 6.4 SE 9 11 5 6 1017.5 1017.0 0.0
05/09:30pm 17.8 14.4 1.7 34 7.3 SE 9 9 5 5 1017.3 1016.8 0.0
05/09:00pm 18.7 15.2 1.2 31 7.9 ESE 9 11 5 6 1017.0 1016.5 0.0
05/08:30pm 20.8 17.3 1.1 27 9.0 ESE 9 11 5 6 1016.9 1016.4 0.0
05/08:00pm 21.7 17.7 0.8 25 9.6 ESE 11 13 6 7 1016.7 1016.2 0.0
05/07:30pm 22.9 18.6 0.7 23 10.2 ESE 13 17 7 9 1016.3 1015.8 0.0
05/07:00pm 23.8 19.0 0.2 21 10.9 ESE 15 19 8 10 1016.2 1015.6 0.0
05/06:30pm 24.8 19.3 0.3 20 11.4 SE 19 24 10 13 1016.0 1015.4 0.0
05/06:00pm 25.9 20.2 0.5 19 11.9 ESE 20 28 11 15 1015.4 1014.9 0.0
05/05:30pm 26.6 20.1 0.4 18 12.4 ESE 24 35 13 19 1014.9 1014.4 0.0
05/05:00pm 27.2 20.7 0.1 17 12.8 ESE 24 33 13 18 1014.6 1014.1 0.0
05/04:30pm 27.5 21.4 0.3 17 12.9 ESE 22 30 12 16 1014.4 1013.9 0.0
05/04:00pm 28.0 21.9 0.7 17 13.1 E 22 32 12 17 1014.3 1013.8 0.0
05/03:30pm 27.6 21.4 -0.5 16 13.1 ESE 22 33 12 18 1014.6 1014.1 0.0
05/03:00pm 27.7 21.6 0.5 17 13.0 SE 22 37 12 20 1015.0 1014.5 0.0
05/02:30pm 26.9 19.7 0.6 18 12.5 ESE 28 46 15 25 1015.3 1014.8 0.0
05/02:29pm 27.2 19.9 0.1 17 12.8 ESE 28 46 15 25 1015.3 1014.8 0.0
05/02:00pm 27.4 20.1 0.2 17 12.9 ESE 28 37 15 20 1015.9 1015.3 0.0
05/01:30pm 27.0 20.8 -0.1 17 12.7 SE 22 37 12 20 1016.2 1015.6 0.0
05/01:00pm 26.5 19.0 -1.3 16 12.7 SE 28 41 15 22 1017.0 1016.5 0.0
05/12:30pm 26.1 18.6 -1.7 16 12.6 ESE 28 39 15 21 1017.5 1017.0 0.0
05/12:00pm 25.7 19.3 -2.0 16 12.4 ESE 22 35 12 19 1018.2 1017.7 0.0
05/11:30am 25.2 17.6 -2.4 16 12.2 SE 28 37 15 20 1018.7 1018.2 0.0
05/11:00am 25.0 17.8 -1.7 17 12.0 ESE 26 39 14 21 1019.2 1018.7 0.0
05/10:30am 23.2 14.8 -2.4 18 11.1 ESE 32 44 17 24 1019.4 1018.9 0.0
05/10:00am 22.3 14.4 -1.7 20 10.5 ESE 30 44 16 24 1019.4 1018.9 0.0
05/09:30am 21.5 14.0 -1.1 22 9.9 SE 28 44 15 24 1019.5 1019.0 0.0
05/09:00am 19.8 14.1 -0.8 25 9.0 SE 19 30 10 16 1019.5 1019.0 0.0
05/08:30am 19.5 13.2 -1.0 25 8.9 SE 22 33 12 18 1019.1 1018.6 0.0
05/08:00am 20.0 14.4 -0.1 26 8.9 SSE 19 26 10 14 1018.7 1018.2 0.0
05/07:30am 17.6 13.4 1.6 34 7.2 SSE 13 17 7 9 1018.2 1017.7 0.0
05/07:00am 15.6 11.5 2.4 41 5.9 SE 13 15 7 8 1017.7 1017.2 0.0
05/06:30am 16.1 12.5 2.9 41 6.0 SE 11 13 6 7 1017.3 1016.8 0.0
05/06:00am 16.4 14.0 5.1 47 5.4 SE 7 9 4 5 1016.9 1016.4 0.0
05/05:30am 16.6 14.1 6.4 51 5.0 SE 9 9 5 5 1016.7 1016.2 0.0
05/05:00am 16.4 14.0 7.1 54 4.6 SE 9 11 5 6 1016.8 1016.3 0.0
05/04:30am 17.1 14.7 7.2 52 5.0 SSE 9 11 5 6 1016.8 1016.3 0.0
05/04:00am 17.8 15.1 7.2 50 5.4 SE 11 11 6 6 1016.7 1016.2 0.0
05/03:30am 20.0 16.9 7.1 43 6.6 ESE 13 19 7 10 1017.0 1016.5 0.0
05/03:00am 20.1 17.1 7.5 44 6.5 ESE 13 17 7 9 1016.9 1016.4 0.0
05/02:30am 20.1 17.1 7.8 45 6.4 ESE 13 17 7 9 1017.2 1016.7 0.0
05/02:00am 20.2 17.6 7.9 45 6.4 ESE 11 15 6 8 1017.6 1017.1 0.0
05/01:30am 21.1 18.1 7.7 42 7.0 ESE 13 19 7 10 1017.6 1017.1 0.0
05/01:00am 21.8 18.4 7.6 40 7.4 ESE 15 20 8 11 1017.7 1017.2 0.0
05/12:30am 22.0 18.8 7.0 38 7.7 ESE 13 20 7 11 1018.0 1017.5 0.0
05/12:00am 22.2 18.9 6.4 36 8.1 ESE 13 17 7 9 1018.0 1017.5 0.0
 
Date/Time
CST
Temp
°C
App
Temp
°C
Dew
Point
°C
Rel
Hum
%
Delta-T
°C
Wind Press
QNH
hPa
Press
MSL
hPa
Rain since
9am
mm
Dir  Spd
km/h
Gust
km/h
Spd
kts
Gust
kts
04/11:30pm 21.8 18.7 5.7 35 8.1 ESE 11 17 6 9 1018.1 1017.6 0.0
04/11:00pm 22.7 18.8 5.2 32 8.8 ESE 15 20 8 11 1018.0 1017.5 0.0
04/10:30pm 22.3 18.8 5.3 33 8.5 ESE 13 19 7 10 1017.9 1017.4 0.0
04/10:00pm 22.0 18.5 5.4 34 8.3 ESE 13 15 7 8 1017.9 1017.4 0.0
04/09:30pm 22.2 18.7 5.6 34 8.4 SE 13 15 7 8 1017.7 1017.2 0.0
04/09:00pm 23.0 19.5 5.4 32 8.9 SE 13 15 7 8 1017.4 1016.9 0.0
04/08:30pm 23.6 20.1 5.5 31 9.2 SE 13 17 7 9 1017.1 1016.6 0.0
04/08:00pm 23.3 19.9 5.7 32 9.0 SE 13 15 7 8 1016.9 1016.4 0.0
04/07:30pm 24.0 20.6 5.8 31 9.3 SE 13 15 7 8 1016.6 1016.1 0.0
04/07:00pm 25.3 21.8 5.5 28 10.2 SE 13 19 7 10 1016.5 1016.0 0.0
04/06:30pm 27.3 22.7 5.6 25 11.3 ESE 19 28 10 15 1016.0 1015.4 0.0
04/06:00pm 28.2 22.9 5.1 23 12.0 ESE 22 33 12 18 1015.6 1015.1 0.0
04/05:30pm 29.1 24.0 5.9 23 12.3 ESE 22 30 12 16 1015.5 1015.0 0.0
04/05:00pm 29.6 23.7 5.6 22 12.7 ESE 26 44 14 24 1015.4 1014.9 0.0
04/04:30pm 30.1 24.1 5.4 21 13.0 ESE 26 39 14 21 1015.3 1014.8 0.0
04/04:00pm 30.2 23.1 5.5 21 13.0 ESE 32 43 17 23 1015.2 1014.7 0.0
04/03:30pm 30.1 23.7 5.4 21 13.0 ESE 28 43 15 23 1015.4 1014.9 0.0
04/03:00pm 30.3 23.2 5.6 21 13.1 ESE 32 43 17 23 1015.6 1015.1 0.0
04/02:30pm 30.0 23.6 5.3 21 13.0 SE 28 50 15 27 1015.9 1015.3 0.0
04/02:10pm 30.4 24.2 6.3 22 12.9 ESE 28 46 15 25 1016.1 1015.5 0.0
04/02:00pm 30.0 23.4 6.0 22 12.8 ESE 30 46 16 25 1016.3 1015.8 0.0
04/01:45pm 30.9 24.8 6.7 22 13.1 E 28 46 15 25 1016.5 1016.0 0.0
04/01:30pm 30.0 23.1 6.6 23 12.6 ESE 32 48 17 26 1016.9 1016.4 0.0
04/01:06pm 30.4 24.2 6.3 22 12.9 ESE 28 52 15 28 1017.0 1016.5 0.0
04/01:00pm 30.0 23.5 6.6 23 12.6 ESE 30 41 16 22 1017.3 1016.8 0.0
04/12:30pm 29.4 23.3 6.7 24 12.2 ESE 28 39 15 21 1017.9 1017.4 0.0
04/12:00pm 28.3 21.4 6.4 25 11.6 ESE 32 44 17 24 1018.3 1017.8 0.0
04/11:30am 28.0 20.6 6.7 26 11.3 ESE 35 48 19 26 1018.5 1018.0 0.0
04/11:00am 27.3 20.3 6.7 27 10.9 ESE 33 46 18 25 1019.0 1018.5 0.0
04/10:30am 27.1 21.0 6.5 27 10.9 E 28 46 15 25 1019.1 1018.6 0.0
04/10:29am 27.3 21.1 6.1 26 11.1 E 28 46 15 25 1019.1 1018.6 0.0
04/10:00am 26.6 21.1 6.1 27 10.7 ESE 24 32 13 17 1019.4 1018.9 0.0
04/09:30am 25.5 19.6 5.7 28 10.2 SE 26 37 14 20 1019.4 1018.9 0.0
04/09:00am 25.0 19.9 7.6 33 9.2 ESE 24 33 13 18 1019.3 1018.8 0.0
04/08:30am 23.9 19.5 9.1 39 8.0 SE 22 28 12 15 1019.0 1018.5 0.0
04/08:00am 22.7 20.2 13.5 56 5.4 SE 19 24 10 13 1018.7 1018.2 0.0
04/07:30am 20.2 20.4 15.8 76 2.6 SSE 9 11 5 6 1018.4 1017.9 0.0
04/07:00am 20.7 21.0 16.1 75 2.8 S 9 13 5 7 1018.0 1017.5 0.0
04/06:30am 20.8 20.8 16.2 75 2.8 SE 11 13 6 7 1017.7 1017.2 0.0
04/06:00am 21.1 20.7 16.1 73 3.0 SE 13 15 7 8 1017.6 1017.1 0.0
04/05:30am 21.2 21.1 16.0 72 3.1 ESE 11 15 6 8 1017.5 1017.0 0.0
04/05:00am 21.2 21.0 15.7 71 3.3 ESE 11 13 6 7 1017.3 1016.8 0.0
04/04:30am 21.2 21.0 15.7 71 3.3 SE 11 15 6 8 1017.2 1016.7 0.0
04/04:00am 20.8 20.5 15.4 71 3.2 SE 11 13 6 7 1017.2 1016.7 0.0
04/03:30am 20.9 20.6 15.4 71 3.3 SSE 11 15 6 8 1017.4 1016.9 0.0
04/03:00am 21.6 21.7 15.4 68 3.7 SE 9 13 5 7 1017.5 1017.0 0.0
04/02:30am 22.4 22.1 15.5 65 4.1 SE 11 13 6 7 1017.6 1017.1 0.0
04/02:00am 24.2 23.1 15.4 58 5.3 E 15 19 8 10 1017.6 1017.1 0.0
04/01:30am 24.6 23.2 15.5 57 5.5 E 17 24 9 13 1017.7 1017.2 0.0
04/01:00am 24.8 23.8 15.7 57 5.5 E 15 17 8 9 1017.8 1017.3 0.0
04/12:30am 25.5 24.2 15.8 55 5.9 E 17 22 9 12 1017.7 1017.2 0.0
04/12:00am 25.7 24.4 15.7 54 6.1 E 17 22 9 12 1017.6 1017.1 0.0
 
Date/Time
CST
Temp
°C
App
Temp
°C
Dew
Point
°C
Rel
Hum
%
Delta-T
°C
Wind Press
QNH
hPa
Press
MSL
hPa
Rain since
9am
mm
Dir  Spd
km/h
Gust
km/h
Spd
kts
Gust
kts
03/11:30pm 25.8 24.8 15.5 53 6.3 E 15 20 8 11 1017.6 1017.1 0.0
03/11:00pm 26.4 24.5 15.1 49 6.9 E 19 24 10 13 1017.6 1017.1 0.0
03/10:30pm 25.3 25.0 14.4 50 6.5 E 9 11 5 6 1017.6 1017.1 0.0

Other formats

Comma delimited format used in spreadsheet applications
http://www.bom.gov.au/fwo/IDD60801/IDD60801.94131.axf

JavaScript Object Notation format (JSON) in row-major order
http://www.bom.gov.au/fwo/IDD60801/IDD60801.94131.json

Data quality

Most of these data are generated automatically and are frequently updated. Quality checks on data are not normally performed. It is possible for incorrect values to appear. Refer to information at About Latest Weather Observations and please check the disclaimer before using these data.